createdAt,value
2023-07-26T00:01:37.318Z,59.36
2023-07-26T00:04:11.752Z,59.22
2023-07-26T00:06:45.665Z,59.37
2023-07-26T00:09:19.962Z,59.31
2023-07-26T00:11:54.625Z,59.40
2023-07-26T00:14:30.453Z,59.56
2023-07-26T00:17:05.726Z,59.60
2023-07-26T00:19:41.097Z,59.35
2023-07-26T00:22:15.757Z,59.48
2023-07-26T00:24:50.020Z,59.58
2023-07-26T00:27:25.549Z,59.44
2023-07-26T00:30:00.529Z,59.61
2023-07-26T00:32:35.297Z,59.64
2023-07-26T00:35:11.074Z,59.58
2023-07-26T00:37:45.857Z,59.48
2023-07-26T00:40:21.625Z,59.64
2023-07-26T00:42:56.208Z,59.70
2023-07-26T00:45:31.051Z,59.57
2023-07-26T00:48:06.026Z,59.69
2023-07-26T00:50:40.704Z,59.74
2023-07-26T00:53:14.962Z,59.77
2023-07-26T00:55:49.845Z,59.70
2023-07-26T00:58:25.715Z,59.78
2023-07-26T01:01:00.399Z,59.71
2023-07-26T01:03:34.395Z,59.58
2023-07-26T01:06:13.739Z,59.86
2023-07-26T01:08:57.384Z,59.70
2023-07-26T01:11:34.494Z,59.88
2023-07-26T01:14:21.197Z,59.95
2023-07-26T01:16:56.217Z,59.89
2023-07-26T01:19:31.327Z,59.88
2023-07-26T01:22:05.647Z,59.91
2023-07-26T01:24:40.535Z,60.09
2023-07-26T01:27:15.150Z,60.04
2023-07-26T01:29:53.122Z,60.11
2023-07-26T01:32:29.738Z,60.11
2023-07-26T01:35:04.102Z,60.07
2023-07-26T01:37:38.730Z,60.12
2023-07-26T01:40:14.966Z,60.33
2023-07-26T01:42:49.111Z,60.23
2023-07-26T01:45:23.629Z,60.38
2023-07-26T01:47:58.927Z,60.47
2023-07-26T01:50:33.948Z,60.54
2023-07-26T01:53:08.030Z,60.56
2023-07-26T01:55:42.598Z,60.29
2023-07-26T01:58:17.069Z,60.42
2023-07-26T02:00:52.234Z,60.47
2023-07-26T02:03:26.950Z,60.64
2023-07-26T02:06:00.973Z,60.44
2023-07-26T02:08:35.485Z,60.54
2023-07-26T02:11:09.995Z,60.52
2023-07-26T02:13:44.192Z,60.24
2023-07-26T02:16:18.205Z,60.30
2023-07-26T02:18:52.468Z,60.13
2023-07-26T02:21:27.539Z,60.18
2023-07-26T02:24:02.013Z,60.13
2023-07-26T02:26:36.010Z,60.07
2023-07-26T02:29:10.055Z,59.96
2023-07-26T02:31:45.119Z,59.80
2023-07-26T02:34:19.422Z,59.70
2023-07-26T02:36:53.336Z,59.57
2023-07-26T02:39:45.314Z,59.27
2023-07-26T02:42:20.266Z,58.94
2023-07-26T02:44:56.338Z,58.44
2023-07-26T02:47:34.108Z,57.62
2023-07-26T02:50:09.845Z,56.64
2023-07-26T02:52:44.540Z,55.52
2023-07-26T02:55:19.131Z,54.46
2023-07-26T02:57:54.095Z,53.38
2023-07-26T03:00:28.986Z,52.45
2023-07-26T03:03:03.494Z,51.47
2023-07-26T03:05:40.704Z,51.02
2023-07-26T03:08:15.190Z,50.81
2023-07-26T03:10:49.424Z,50.41
2023-07-26T03:13:23.653Z,50.05
2023-07-26T03:15:58.386Z,50.33
2023-07-26T03:18:32.159Z,50.60
2023-07-26T03:21:07.241Z,50.87
2023-07-26T03:23:42.367Z,51.29
2023-07-26T03:26:17.180Z,51.36
2023-07-26T03:28:51.728Z,51.49
2023-07-26T03:31:25.970Z,51.74
2023-07-26T03:34:00.245Z,51.78
2023-07-26T03:36:34.956Z,51.81
2023-07-26T03:39:09.574Z,51.62
2023-07-26T03:41:44.537Z,51.83
2023-07-26T03:44:18.436Z,51.61
2023-07-26T03:46:52.441Z,51.04
2023-07-26T03:49:27.720Z,50.76
2023-07-26T03:52:01.245Z,50.19
2023-07-26T03:54:52.759Z,50.09
2023-07-26T03:57:26.698Z,50.18
2023-07-26T04:00:01.470Z,50.33
2023-07-26T04:02:38.216Z,50.27
2023-07-26T04:05:13.696Z,50.06
2023-07-26T04:07:48.467Z,50.31
2023-07-26T04:10:23.094Z,50.62
2023-07-26T04:12:56.897Z,50.60
2023-07-26T04:15:31.150Z,50.74
2023-07-26T04:18:05.928Z,50.55
2023-07-26T04:20:40.541Z,50.40
2023-07-26T04:23:14.883Z,50.64
2023-07-26T04:25:54.519Z,50.25
2023-07-26T04:28:28.826Z,49.67
2023-07-26T04:31:03.063Z,49.64
2023-07-26T04:33:37.321Z,49.66
2023-07-26T04:36:13.704Z,49.29
2023-07-26T04:38:47.784Z,48.99
2023-07-26T04:41:22.934Z,48.35
2023-07-26T04:43:56.600Z,47.81
2023-07-26T04:46:30.860Z,47.68
2023-07-26T04:49:05.006Z,47.33
2023-07-26T04:51:38.846Z,46.56
2023-07-26T04:54:12.412Z,46.38
2023-07-26T04:56:46.301Z,46.38
2023-07-26T04:59:20.049Z,46.00
2023-07-26T05:01:54.021Z,45.65
2023-07-26T05:04:28.008Z,45.33
2023-07-26T05:07:03.217Z,44.97
2023-07-26T05:09:37.295Z,44.88
2023-07-26T05:12:12.468Z,44.57
2023-07-26T05:14:46.138Z,43.77
2023-07-26T05:17:20.541Z,43.18
2023-07-26T05:19:54.347Z,41.86
2023-07-26T05:22:28.414Z,39.51
2023-07-26T05:25:02.165Z,36.34
2023-07-26T05:27:36.097Z,33.47
2023-07-26T05:30:11.705Z,31.01
2023-07-26T05:32:45.973Z,28.79
2023-07-26T05:35:20.765Z,26.95
2023-07-26T05:37:53.035Z,24.87
2023-07-26T05:40:27.130Z,23.90
2023-07-26T05:43:00.903Z,22.41
2023-07-26T05:45:34.542Z,21.17
2023-07-26T05:48:08.459Z,20.06
2023-07-26T05:50:42.637Z,19.43
2023-07-26T05:53:16.388Z,18.40
2023-07-26T05:55:50.390Z,17.91
2023-07-26T05:58:23.986Z,17.77
2023-07-26T06:00:59.287Z,17.03
2023-07-26T06:03:34.649Z,15.86
2023-07-26T06:06:08.377Z,15.33
2023-07-26T06:08:42.472Z,15.12
2023-07-26T06:11:16.310Z,14.99
2023-07-26T06:13:49.982Z,14.49
2023-07-26T06:16:27.795Z,14.14
2023-07-26T06:19:01.975Z,13.64
2023-07-26T06:21:35.792Z,12.74
2023-07-26T06:24:11.692Z,12.74
2023-07-26T06:26:45.798Z,12.83
2023-07-26T06:29:19.724Z,13.10
2023-07-26T06:31:53.675Z,13.13
2023-07-26T06:34:27.951Z,12.77
2023-07-26T06:37:01.533Z,13.75
2023-07-26T06:39:35.883Z,14.57
2023-07-26T06:42:11.699Z,14.51
2023-07-26T06:44:45.797Z,14.38
2023-07-26T06:47:20.048Z,13.55
2023-07-26T06:49:54.424Z,13.63
2023-07-26T06:52:28.343Z,13.86
2023-07-26T06:55:02.628Z,13.54
2023-07-26T06:57:36.703Z,13.13
2023-07-26T07:00:14.300Z,12.86
2023-07-26T07:02:48.267Z,12.18
2023-07-26T07:05:22.456Z,12.36
2023-07-26T07:07:56.242Z,12.43
2023-07-26T07:10:29.970Z,12.22
2023-07-26T07:13:04.427Z,12.45
2023-07-26T07:15:38.940Z,13.19
2023-07-26T07:18:16.253Z,13.56
2023-07-26T07:20:50.405Z,14.33
2023-07-26T07:23:23.285Z,15.04
2023-07-26T07:25:57.048Z,15.99
2023-07-26T07:28:31.005Z,16.16
2023-07-26T07:31:04.608Z,17.42
2023-07-26T07:33:38.539Z,18.23
2023-07-26T07:36:16.903Z,19.12
2023-07-26T07:38:50.842Z,19.53
2023-07-26T07:41:24.816Z,20.20
2023-07-26T07:43:58.968Z,20.82
2023-07-26T07:46:32.582Z,21.35
2023-07-26T07:49:06.612Z,22.31
2023-07-26T07:51:41.316Z,22.91
2023-07-26T07:54:15.879Z,23.03
2023-07-26T07:56:49.960Z,23.65
2023-07-26T07:59:23.983Z,24.06
2023-07-26T08:01:58.228Z,23.93
2023-07-26T08:04:32.845Z,23.89
2023-07-26T08:07:07.393Z,24.34
2023-07-26T08:09:41.643Z,24.83
2023-07-26T08:12:16.053Z,24.86
2023-07-26T08:14:54.722Z,25.11
2023-07-26T08:17:29.711Z,25.08
2023-07-26T08:20:04.047Z,24.71
2023-07-26T08:22:37.975Z,25.30
2023-07-26T08:25:13.804Z,25.96
2023-07-26T08:27:48.352Z,26.24
2023-07-26T08:30:22.541Z,26.49
2023-07-26T08:32:56.944Z,26.45
2023-07-26T08:35:30.957Z,26.63
2023-07-26T08:38:05.224Z,26.16
2023-07-26T08:40:39.531Z,25.69
2023-07-26T08:43:15.165Z,26.04
2023-07-26T08:45:47.011Z,26.92
2023-07-26T08:48:22.602Z,27.43
2023-07-26T08:50:54.249Z,27.82
2023-07-26T08:53:28.204Z,28.14
2023-07-26T08:56:02.034Z,28.66
2023-07-26T08:58:35.912Z,28.55
2023-07-26T09:01:09.783Z,28.39
2023-07-26T09:03:44.132Z,28.14
2023-07-26T09:06:17.992Z,28.25
2023-07-26T09:08:51.919Z,28.33
2023-07-26T09:11:27.592Z,27.99
2023-07-26T09:14:02.314Z,28.11
2023-07-26T09:16:36.820Z,27.87
2023-07-26T09:19:10.669Z,27.83
2023-07-26T09:21:44.373Z,28.06
2023-07-26T09:24:18.324Z,28.24
2023-07-26T09:26:52.043Z,28.29
2023-07-26T09:29:26.090Z,28.31
2023-07-26T09:31:59.881Z,28.10
2023-07-26T09:34:33.966Z,28.22
2023-07-26T09:37:08.382Z,28.17
2023-07-26T09:39:49.558Z,28.25
2023-07-26T09:42:24.051Z,28.80
2023-07-26T09:45:04.557Z,29.02
2023-07-26T09:47:42.193Z,28.81
2023-07-26T09:53:08.415Z,28.77
2023-07-26T09:55:43.159Z,28.87
2023-07-26T09:58:17.226Z,29.05
2023-07-26T10:00:51.478Z,28.78
2023-07-26T10:03:26.382Z,28.87
2023-07-26T10:06:00.436Z,28.96
2023-07-26T10:08:34.322Z,28.75
2023-07-26T10:11:08.958Z,28.96
2023-07-26T10:13:43.336Z,28.60
2023-07-26T10:16:17.316Z,28.52
2023-07-26T10:18:52.755Z,28.86
2023-07-26T10:21:24.759Z,28.79
2023-07-26T10:24:01.260Z,28.59
2023-07-26T10:26:37.485Z,28.85
2023-07-26T10:29:11.372Z,28.95
2023-07-26T10:31:45.954Z,28.99
2023-07-26T10:34:25.077Z,28.93
2023-07-26T10:36:58.989Z,29.17
2023-07-26T10:39:37.273Z,29.65
2023-07-26T10:42:25.743Z,29.90
2023-07-26T10:45:00.915Z,30.35
2023-07-26T10:47:34.901Z,30.18
2023-07-26T10:50:11.566Z,30.33
2023-07-26T10:52:46.403Z,30.36
2023-07-26T10:55:28.698Z,30.54
2023-07-26T10:58:03.815Z,30.18
2023-07-26T11:00:40.528Z,30.09
2023-07-26T11:03:15.410Z,30.26
2023-07-26T11:05:58.700Z,30.00
2023-07-26T11:08:51.717Z,29.96
2023-07-26T11:11:30.440Z,29.63
2023-07-26T11:14:05.861Z,29.46
2023-07-26T11:16:39.799Z,29.83
2023-07-26T11:19:14.848Z,30.00
2023-07-26T11:21:48.424Z,29.94
2023-07-26T11:24:31.125Z,29.96
2023-07-26T11:27:08.654Z,30.05
2023-07-26T11:29:43.068Z,30.07
2023-07-26T11:32:29.929Z,29.95
2023-07-26T11:35:03.812Z,29.83
2023-07-26T11:37:37.920Z,29.86
2023-07-26T11:40:14.173Z,30.20
2023-07-26T11:42:51.089Z,30.38
2023-07-26T11:45:24.738Z,30.22
2023-07-26T11:47:58.538Z,30.30
2023-07-26T11:50:32.826Z,30.29
2023-07-26T11:53:10.372Z,30.44
2023-07-26T11:55:45.768Z,30.53
2023-07-26T11:58:20.080Z,30.29
2023-07-26T12:00:53.942Z,30.55
2023-07-26T12:03:28.785Z,30.44
2023-07-26T12:06:08.330Z,30.38
2023-07-26T12:08:43.488Z,30.43
2023-07-26T12:11:21.462Z,30.14
2023-07-26T12:14:00.559Z,30.28
2023-07-26T12:16:34.900Z,30.07
2023-07-26T12:19:08.950Z,29.81
2023-07-26T12:21:43.350Z,29.87
2023-07-26T12:24:17.102Z,30.24
2023-07-26T12:26:53.434Z,30.31
2023-07-26T12:29:32.181Z,30.22
2023-07-26T12:32:14.357Z,30.43
2023-07-26T12:34:50.226Z,30.46
2023-07-26T12:37:33.536Z,30.58
2023-07-26T12:40:09.315Z,30.64
2023-07-26T12:42:42.894Z,30.62
2023-07-26T12:45:16.898Z,30.90
2023-07-26T12:47:50.896Z,30.97
2023-07-26T12:50:25.059Z,30.75
2023-07-26T12:52:58.841Z,30.63
2023-07-26T12:55:32.744Z,30.65
2023-07-26T12:58:06.197Z,30.72
2023-07-26T13:00:40.001Z,31.16
2023-07-26T13:03:13.787Z,31.17
2023-07-26T13:05:47.655Z,31.13
2023-07-26T13:08:21.338Z,31.05
2023-07-26T13:10:55.664Z,30.75
2023-07-26T13:13:29.459Z,30.31
2023-07-26T13:16:03.819Z,30.68
2023-07-26T13:18:38.215Z,31.20
2023-07-26T13:21:12.226Z,31.40
2023-07-26T13:23:46.019Z,31.38
2023-07-26T13:26:20.053Z,31.85
2023-07-26T13:28:54.106Z,32.13
2023-07-26T13:31:27.868Z,32.48
2023-07-26T13:34:01.451Z,32.36
2023-07-26T13:36:35.480Z,31.98
2023-07-26T13:39:09.282Z,32.17
2023-07-26T13:41:43.024Z,32.37
2023-07-26T13:44:17.272Z,32.37
2023-07-26T13:46:51.597Z,32.36
2023-07-26T13:49:25.208Z,32.35
2023-07-26T13:51:58.876Z,32.10
2023-07-26T13:58:36.002Z,32.30
2023-07-26T14:01:09.731Z,32.31
2023-07-26T14:03:43.586Z,32.48
2023-07-26T14:06:17.209Z,32.18
2023-07-26T14:08:51.035Z,31.88
2023-07-26T14:11:24.791Z,31.76
2023-07-26T14:13:59.683Z,31.87
2023-07-26T14:19:48.287Z,31.69
2023-07-26T14:22:23.307Z,31.48
2023-07-26T14:24:58.038Z,31.92
2023-07-26T14:27:32.443Z,31.81
2023-07-26T14:30:06.983Z,31.82
2023-07-26T14:32:41.083Z,31.79
2023-07-26T14:35:15.643Z,31.93
2023-07-26T14:37:49.522Z,31.85
2023-07-26T14:40:23.939Z,31.80
2023-07-26T14:42:57.654Z,32.09
2023-07-26T14:45:31.811Z,32.14
2023-07-26T14:48:05.987Z,32.13
2023-07-26T14:50:40.011Z,32.21
2023-07-26T14:53:14.945Z,32.21
2023-07-26T14:55:49.756Z,32.52
2023-07-26T14:58:23.919Z,32.61
2023-07-26T15:00:58.934Z,32.50
2023-07-26T15:03:33.002Z,32.47
2023-07-26T15:06:08.480Z,32.64
2023-07-26T15:08:49.412Z,32.62
2023-07-26T15:11:27.259Z,32.80
2023-07-26T15:14:04.503Z,33.03
2023-07-26T15:16:40.533Z,33.50
2023-07-26T15:19:16.005Z,33.87
2023-07-26T15:21:54.376Z,34.19
2023-07-26T15:24:33.228Z,34.19
2023-07-26T15:27:09.140Z,34.14
2023-07-26T15:29:48.138Z,34.21
2023-07-26T15:32:24.745Z,34.32
2023-07-26T15:35:01.112Z,34.38
2023-07-26T15:37:35.654Z,34.36
2023-07-26T15:40:25.492Z,34.29
2023-07-26T15:43:00.721Z,34.60
2023-07-26T15:48:12.873Z,34.65
2023-07-26T15:53:25.042Z,34.95
2023-07-26T15:58:50.519Z,35.20
2023-07-26T16:01:26.605Z,35.50
2023-07-26T16:04:01.165Z,35.44
2023-07-26T16:07:01.840Z,35.42
2023-07-26T16:09:30.330Z,35.66
2023-07-26T16:14:44.255Z,35.95
2023-07-26T16:17:19.193Z,36.30
2023-07-26T16:19:54.538Z,36.38
2023-07-26T16:22:28.781Z,36.63
2023-07-26T16:25:03.298Z,37.04
2023-07-26T16:27:37.686Z,37.46
2023-07-26T16:30:14.361Z,37.99
2023-07-26T16:32:48.400Z,38.36
2023-07-26T16:35:23.520Z,38.50
2023-07-26T16:37:57.699Z,38.79
2023-07-26T16:40:31.882Z,39.15
2023-07-26T16:43:06.316Z,39.40
2023-07-26T16:45:40.865Z,39.56
2023-07-26T16:48:15.518Z,39.69
2023-07-26T16:50:49.856Z,39.82
2023-07-26T16:53:24.072Z,40.18
2023-07-26T16:55:58.440Z,40.30
2023-07-26T16:58:33.189Z,40.51
2023-07-26T17:01:08.199Z,40.65
2023-07-26T17:03:42.489Z,40.97
2023-07-26T17:06:16.922Z,41.20
2023-07-26T17:08:51.284Z,41.33
2023-07-26T17:11:25.555Z,41.31
2023-07-26T17:13:59.684Z,41.55
2023-07-26T17:16:34.343Z,41.54
2023-07-26T17:19:09.064Z,41.84
2023-07-26T17:21:43.609Z,41.81
2023-07-26T17:24:20.556Z,42.10
2023-07-26T17:26:55.305Z,42.23
2023-07-26T17:39:41.493Z,43.20
2023-07-26T17:42:16.123Z,43.17
2023-07-26T17:44:50.286Z,43.53
2023-07-26T17:47:24.901Z,43.42
2023-07-26T17:49:59.845Z,43.92
2023-07-26T17:52:33.906Z,43.82
2023-07-26T17:55:09.288Z,43.99
2023-07-26T17:57:45.287Z,44.35
2023-07-26T18:00:24.699Z,44.24
2023-07-26T18:02:59.543Z,44.33
2023-07-26T18:05:34.458Z,44.71
2023-07-26T18:08:09.806Z,44.75
2023-07-26T18:10:44.253Z,45.05
2023-07-26T18:13:18.838Z,45.19
2023-07-26T18:15:53.329Z,45.23
2023-07-26T18:18:27.886Z,45.36
2023-07-26T18:21:03.119Z,45.21
2023-07-26T18:23:37.946Z,45.67
2023-07-26T18:26:13.408Z,45.61
2023-07-26T18:28:47.818Z,45.83
2023-07-26T18:31:21.921Z,45.84
2023-07-26T18:33:56.039Z,46.10
2023-07-26T18:36:30.026Z,46.21
2023-07-26T18:39:04.599Z,46.22
2023-07-26T18:41:38.652Z,46.37
2023-07-26T18:44:12.792Z,46.35
2023-07-26T18:46:47.506Z,46.43
2023-07-26T18:49:21.470Z,46.54
2023-07-26T18:51:56.003Z,46.71
2023-07-26T18:54:30.630Z,46.74
2023-07-26T18:57:04.324Z,46.66
2023-07-26T18:59:38.189Z,46.74
2023-07-26T19:02:12.573Z,46.88
2023-07-26T19:04:47.076Z,46.76
2023-07-26T19:07:22.277Z,46.83
2023-07-26T19:09:56.193Z,47.24
2023-07-26T19:12:30.379Z,47.01
2023-07-26T19:15:04.437Z,47.23
2023-07-26T19:17:38.610Z,47.17
2023-07-26T19:20:14.166Z,47.22
2023-07-26T19:22:48.129Z,47.26
2023-07-26T19:25:22.151Z,47.38
2023-07-26T19:27:56.250Z,47.45
2023-07-26T19:30:30.343Z,47.32
2023-07-26T19:33:04.404Z,47.47
2023-07-26T19:35:38.989Z,47.66
2023-07-26T19:38:13.889Z,47.79
2023-07-26T19:41:03.290Z,47.68
2023-07-26T19:43:38.527Z,48.17
2023-07-26T19:46:14.170Z,48.13
2023-07-26T19:48:51.953Z,48.23
2023-07-26T19:51:26.332Z,48.38
2023-07-26T19:54:00.276Z,48.29
2023-07-26T19:56:34.516Z,48.57
2023-07-26T19:59:08.753Z,48.36
2023-07-26T20:01:42.845Z,48.33
2023-07-26T20:04:17.205Z,48.58
2023-07-26T20:06:53.111Z,48.77
2023-07-26T20:09:28.118Z,48.71
2023-07-26T20:12:03.895Z,48.77
2023-07-26T20:14:39.013Z,48.49
2023-07-26T20:17:13.149Z,48.70
2023-07-26T20:19:47.973Z,48.78
2023-07-26T20:22:23.065Z,48.87
2023-07-26T20:24:56.994Z,49.09
2023-07-26T20:27:32.076Z,48.88
2023-07-26T20:30:06.831Z,48.95
2023-07-26T20:32:40.850Z,49.25
2023-07-26T20:35:15.079Z,49.19
2023-07-26T20:37:49.221Z,49.23
2023-07-26T20:40:23.483Z,49.30
2023-07-26T20:42:57.790Z,49.19
2023-07-26T20:45:31.958Z,49.26
2023-07-26T20:48:06.207Z,49.33
2023-07-26T20:50:41.056Z,49.34
2023-07-26T20:53:16.441Z,49.29
2023-07-26T20:55:50.798Z,49.34
2023-07-26T20:58:24.606Z,49.58
2023-07-26T21:00:58.388Z,49.45
2023-07-26T21:03:32.440Z,49.42
2023-07-26T21:06:07.064Z,49.51
2023-07-26T21:08:41.231Z,49.40
2023-07-26T21:11:15.583Z,49.52
2023-07-26T21:13:50.356Z,49.61
2023-07-26T21:16:24.496Z,49.54
2023-07-26T21:18:58.243Z,49.69
2023-07-26T21:21:32.752Z,49.96
2023-07-26T21:24:08.047Z,49.92
2023-07-26T21:26:42.264Z,50.13
2023-07-26T21:29:16.262Z,50.23
2023-07-26T21:31:50.260Z,50.33
2023-07-26T21:34:25.381Z,50.17
2023-07-26T21:36:59.010Z,50.43
2023-07-26T21:39:33.643Z,50.63
2023-07-26T21:42:08.544Z,50.37
2023-07-26T21:44:42.909Z,50.59
2023-07-26T21:47:17.319Z,50.73
2023-07-26T21:49:51.631Z,50.63
2023-07-26T21:52:25.821Z,50.92
2023-07-26T21:54:59.821Z,50.78
2023-07-26T21:57:34.224Z,50.73
2023-07-26T22:00:10.529Z,50.77
2023-07-26T22:02:43.386Z,50.97
2023-07-26T22:05:17.571Z,51.05
2023-07-26T22:07:51.444Z,51.05
2023-07-26T22:10:25.145Z,51.00
2023-07-26T22:12:59.994Z,51.17
2023-07-26T22:15:33.957Z,50.89
2023-07-26T22:18:07.991Z,51.15
2023-07-26T22:21:01.656Z,51.12
2023-07-26T22:23:37.304Z,51.23
2023-07-26T22:26:15.778Z,51.38
2023-07-26T22:29:04.697Z,51.31
2023-07-26T22:31:39.331Z,51.59
2023-07-26T22:34:13.741Z,51.59
2023-07-26T22:36:48.044Z,51.86
2023-07-26T22:39:23.192Z,51.87
2023-07-26T22:41:58.084Z,51.78
2023-07-26T22:44:32.631Z,51.89
2023-07-26T22:47:07.310Z,51.92
2023-07-26T22:49:40.883Z,52.01
2023-07-26T22:52:14.868Z,52.08
2023-07-26T22:54:49.245Z,52.07
2023-07-26T22:57:23.365Z,52.27
2023-07-26T22:59:58.317Z,52.26
2023-07-26T23:02:33.322Z,52.43
2023-07-26T23:05:07.590Z,52.63
2023-07-26T23:07:41.674Z,52.83
2023-07-26T23:10:16.545Z,52.77
2023-07-26T23:12:50.329Z,52.96
2023-07-26T23:15:26.108Z,53.03
2023-07-26T23:18:00.801Z,53.04
2023-07-26T23:20:34.966Z,53.23
2023-07-26T23:23:08.927Z,53.16
2023-07-26T23:25:43.106Z,53.21
2023-07-26T23:28:17.786Z,53.18
2023-07-26T23:30:52.997Z,53.20
2023-07-26T23:33:26.503Z,53.52
2023-07-26T23:36:00.927Z,53.48
2023-07-26T23:38:34.656Z,53.73
2023-07-26T23:41:09.246Z,53.66
2023-07-26T23:43:43.527Z,53.73
2023-07-26T23:46:17.304Z,53.79
2023-07-26T23:48:51.066Z,53.93
2023-07-26T23:51:25.971Z,54.08
2023-07-26T23:54:00.911Z,54.20
2023-07-26T23:56:36.042Z,54.38
2023-07-26T23:59:10.439Z,54.54
